Time;durP1;ratioP1;P1;durP2;ratioP2;P2;SDS_P1;SDS_P2;PMS_P1;PMS_P2;Temp;Humidity;BMP_temperature;BMP_pressure;BME280_temperature;BME280_humidity;BME280_pressure;Samples;Min_cycle;Max_cycle;Signal;HPM_P1;HPM_P2
2020/12/23 00:00:51;;;;;;;1.25;1.02;;;12.30;99.90;;;;;;4935561;29;20674;-46
2020/12/23 00:03:19;;;;;;;4.07;3.08;;;12.30;99.90;;;;;;4935451;29;20338;-49
2020/12/23 00:05:46;;;;;;;2.33;1.50;;;12.30;99.90;;;;;;4935605;29;20248;-47
2020/12/23 00:08:13;;;;;;;1.00;0.90;;;12.30;99.90;;;;;;4934815;29;20299;-49
2020/12/23 00:10:40;;;;;;;1.42;0.95;;;12.30;99.90;;;;;;4935320;29;20651;-48
2020/12/23 00:13:07;;;;;;;6.97;4.20;;;12.30;99.90;;;;;;4935350;29;20647;-49
2020/12/23 00:15:34;;;;;;;2.83;2.15;;;12.30;99.90;;;;;;4934879;29;20331;-52
2020/12/23 00:18:01;;;;;;;2.90;1.67;;;12.20;99.90;;;;;;4935271;29;20299;-47
2020/12/23 00:20:29;;;;;;;2.50;1.20;;;12.30;99.90;;;;;;4935527;29;20247;-46
2020/12/23 00:22:56;;;;;;;1.67;1.13;;;12.30;99.90;;;;;;4935360;29;20216;-46
2020/12/23 00:25:23;;;;;;;3.97;2.40;;;12.30;99.90;;;;;;4935295;29;20307;-48
2020/12/23 00:27:50;;;;;;;1.83;1.20;;;12.30;99.90;;;;;;4935033;29;20685;-48
2020/12/23 00:30:19;;;;;;;1.70;1.23;;;12.30;99.90;;;;;;4934768;29;20667;-46
2020/12/23 00:32:47;;;;;;;1.10;1.00;;;12.40;99.90;;;;;;4935152;29;20251;-49
2020/12/23 00:35:14;;;;;;;1.20;0.98;;;12.40;99.90;;;;;;4934919;29;21044;-49
2020/12/23 00:37:42;;;;;;;1.50;1.00;;;12.40;99.90;;;;;;4934875;29;20213;-48
2020/12/23 00:40:09;;;;;;;1.20;1.10;;;12.40;99.90;;;;;;4934783;29;20762;-49
2020/12/23 00:42:36;;;;;;;2.05;0.95;;;12.50;99.90;;;;;;4934762;29;20736;-47
2020/12/23 00:45:03;;;;;;;1.10;1.00;;;12.40;99.90;;;;;;4934760;29;20370;-46
2020/12/23 00:47:30;;;;;;;4.60;2.40;;;12.50;99.90;;;;;;4934747;29;20235;-47
2020/12/23 00:49:57;;;;;;;1.35;1.20;;;12.50;99.90;;;;;;4934968;29;20208;-47
2020/12/23 00:52:24;;;;;;;1.10;1.00;;;12.50;99.90;;;;;;4934861;29;20315;-50
2020/12/23 00:54:52;;;;;;;0.90;0.80;;;12.50;99.90;;;;;;4934549;29;20327;-49
2020/12/23 00:57:19;;;;;;;1.40;1.13;;;12.50;99.90;;;;;;4935023;29;20226;-46
2020/12/23 00:59:46;;;;;;;0.60;0.60;;;12.50;99.90;;;;;;4934678;29;20255;-48
2020/12/23 01:02:13;;;;;;;2.70;1.70;;;12.50;99.90;;;;;;4934600;29;20302;-50
2020/12/23 01:04:40;;;;;;;1.67;0.90;;;12.50;99.90;;;;;;4934936;29;20204;-50
2020/12/23 01:07:08;;;;;;;0.80;0.60;;;12.50;99.90;;;;;;4934578;29;20307;-50
2020/12/23 01:09:35;;;;;;;0.88;0.85;;;12.60;99.90;;;;;;4934713;29;20243;-48
2020/12/23 01:12:02;;;;;;;0.85;0.80;;;12.60;99.90;;;;;;4934892;29;20322;-50
2020/12/23 01:14:29;;;;;;;0.90;0.80;;;12.60;99.90;;;;;;4934400;29;20334;-51
2020/12/23 01:16:56;;;;;;;5.22;4.07;;;12.50;99.90;;;;;;4934716;29;20299;-47
2020/12/23 01:19:23;;;;;;;1.65;1.55;;;12.50;99.90;;;;;;4934720;29;20311;-50
2020/12/23 01:21:51;;;;;;;4.22;3.60;;;12.50;99.90;;;;;;4938044;29;20323;-49
2020/12/23 01:24:17;;;;;;;0.80;0.80;;;12.40;99.90;;;;;;4938439;29;20242;-51
2020/12/23 01:26:44;;;;;;;1.58;0.90;;;12.40;99.90;;;;;;4938571;29;20663;-51
2020/12/23 01:29:12;;;;;;;0.80;0.75;;;12.40;99.90;;;;;;4938545;29;20246;-46
2020/12/23 01:31:41;;;;;;;1.08;0.88;;;12.50;99.90;;;;;;4938478;29;20234;-46
2020/12/23 01:34:08;;;;;;;1.13;0.75;;;12.50;99.90;;;;;;4938281;29;20244;-46
2020/12/23 01:36:35;;;;;;;0.80;0.80;;;12.50;99.90;;;;;;4938227;29;20639;-46
2020/12/23 01:39:02;;;;;;;0.60;0.60;;;12.50;99.90;;;;;;4938159;29;20633;-48
2020/12/23 01:41:29;;;;;;;0.90;0.70;;;12.60;99.90;;;;;;4938278;29;20251;-49
2020/12/23 01:43:58;;;;;;;2.10;0.80;;;12.60;99.90;;;;;;4938144;29;20215;-48
2020/12/23 01:46:31;;;;;;;0.95;0.77;;;12.60;99.90;;;;;;4938062;29;20254;-52
2020/12/23 01:49:01;;;;;;;1.13;1.02;;;12.60;99.90;;;;;;4937932;29;20222;-48
2020/12/23 01:51:28;;;;;;;1.00;0.90;;;12.50;99.90;;;;;;4938237;29;20208;-52
2020/12/23 01:53:57;;;;;;;1.38;1.00;;;12.50;99.90;;;;;;4938210;29;20303;-51
2020/12/23 01:56:24;;;;;;;2.08;1.15;;;12.50;99.90;;;;;;4937850;29;20314;-50
2020/12/23 01:58:51;;;;;;;2.05;1.85;;;12.50;99.90;;;;;;4937780;29;20244;-51
2020/12/23 02:01:20;;;;;;;1.25;1.02;;;12.40;99.90;;;;;;4937638;29;20546;-48
2020/12/23 02:03:48;;;;;;;1.38;1.25;;;12.40;99.90;;;;;;4937414;29;20260;-48
2020/12/23 02:06:16;;;;;;;0.63;0.63;;;12.40;99.90;;;;;;4937624;29;20247;-51
2020/12/23 02:08:43;;;;;;;0.63;0.63;;;12.40;99.90;;;;;;4937745;29;20259;-51
2020/12/23 02:11:12;;;;;;;0.80;0.65;;;12.40;99.90;;;;;;4937844;29;20227;-49
2020/12/23 02:13:40;;;;;;;1.60;1.38;;;12.40;99.90;;;;;;4937689;29;20666;-50
2020/12/23 02:16:08;;;;;;;0.82;0.60;;;12.40;99.90;;;;;;4937447;29;20324;-50
2020/12/23 02:18:35;;;;;;;0.80;0.70;;;12.40;99.90;;;;;;4937341;29;20276;-47
2020/12/23 02:21:04;;;;;;;2.47;2.20;;;12.40;99.90;;;;;;4937458;29;20238;-49
2020/12/23 02:23:32;;;;;;;0.65;0.63;;;12.40;99.90;;;;;;4937626;29;20302;-47
2020/12/23 02:25:59;;;;;;;0.70;0.60;;;12.30;99.90;;;;;;4937566;29;20215;-53
2020/12/23 02:28:26;;;;;;;0.80;0.63;;;12.40;99.90;;;;;;4937147;29;20249;-49
2020/12/23 02:30:59;;;;;;;1.83;0.98;;;12.40;99.90;;;;;;4936768;29;20215;-47
2020/12/23 02:33:26;;;;;;;1.52;0.73;;;12.40;99.90;;;;;;4937568;29;20307;-51
2020/12/23 02:35:53;;;;;;;0.82;0.82;;;12.40;99.90;;;;;;4937296;29;20286;-47
2020/12/23 02:38:20;;;;;;;1.02;0.75;;;12.50;99.90;;;;;;4937304;29;20251;-53
2020/12/23 02:40:48;;;;;;;0.93;0.75;;;12.50;99.90;;;;;;4937212;29;20224;-50
2020/12/23 02:43:15;;;;;;;1.20;0.90;;;12.60;99.90;;;;;;4937097;29;20315;-50
2020/12/23 02:45:42;;;;;;;0.50;0.50;;;12.60;99.90;;;;;;4936977;29;20686;-49
2020/12/23 02:48:09;;;;;;;0.82;0.70;;;12.60;99.90;;;;;;4936992;29;20617;-48
2020/12/23 02:50:36;;;;;;;0.70;0.63;;;12.70;99.90;;;;;;4936980;29;20267;-48
2020/12/23 02:53:03;;;;;;;0.70;0.70;;;12.60;99.90;;;;;;4936832;29;20248;-46
2020/12/23 02:55:30;;;;;;;2.80;0.73;;;12.70;99.90;;;;;;4936813;29;20260;-47
2020/12/23 02:57:58;;;;;;;0.60;0.60;;;12.70;99.90;;;;;;4936865;29;20212;-47
2020/12/23 03:00:25;;;;;;;0.60;0.60;;;12.70;99.90;;;;;;4936622;29;20683;-49
2020/12/23 03:02:52;;;;;;;1.05;0.80;;;12.70;99.90;;;;;;4936708;29;20671;-49
2020/12/23 03:05:19;;;;;;;1.00;0.90;;;12.70;99.90;;;;;;4936823;29;20295;-47
2020/12/23 03:07:46;;;;;;;0.63;0.60;;;12.80;99.90;;;;;;4936433;29;20233;-48
2020/12/23 03:10:13;;;;;;;2.00;0.60;;;12.80;99.90;;;;;;4936625;29;20299;-46
2020/12/23 03:12:40;;;;;;;1.75;0.70;;;12.80;99.90;;;;;;4936269;29;20303;-51
2020/12/23 03:15:08;;;;;;;0.70;0.60;;;12.80;99.90;;;;;;4936552;29;20232;-47
2020/12/23 03:17:36;;;;;;;1.00;0.80;;;12.90;99.90;;;;;;4936292;29;20216;-50
2020/12/23 03:20:04;;;;;;;0.70;0.70;;;12.90;99.90;;;;;;4936479;29;20216;-50
2020/12/23 03:22:31;;;;;;;0.60;0.60;;;12.80;99.90;;;;;;4936356;29;20303;-51
2020/12/23 03:24:58;;;;;;;0.57;0.57;;;12.90;99.90;;;;;;4936241;29;20227;-49
2020/12/23 03:27:25;;;;;;;0.50;0.50;;;12.90;99.90;;;;;;4936158;29;20222;-50
2020/12/23 03:29:52;;;;;;;2.20;0.60;;;12.90;99.90;;;;;;4936341;29;20243;-47
2020/12/23 03:32:20;;;;;;;0.50;0.50;;;12.90;99.90;;;;;;4936325;29;20317;-47
2020/12/23 03:34:47;;;;;;;0.65;0.65;;;13.00;99.90;;;;;;4936074;29;20239;-47
2020/12/23 03:37:14;;;;;;;0.82;0.82;;;12.90;99.90;;;;;;4936212;29;20298;-50
2020/12/23 03:39:41;;;;;;;0.70;0.70;;;12.90;99.90;;;;;;4935973;29;20208;-49
2020/12/23 03:42:08;;;;;;;0.85;0.60;;;12.90;99.90;;;;;;4935788;29;20706;-47
2020/12/23 03:44:36;;;;;;;0.77;0.60;;;12.90;99.90;;;;;;4935407;29;20216;-52
2020/12/23 03:47:03;;;;;;;1.05;0.52;;;13.00;99.90;;;;;;4935843;29;20236;-49
2020/12/23 03:49:30;;;;;;;0.50;0.50;;;13.00;99.90;;;;;;4935907;29;20214;-48
2020/12/23 03:51:57;;;;;;;0.80;0.75;;;13.00;99.90;;;;;;4935764;29;20215;-49
2020/12/23 03:54:24;;;;;;;1.05;0.95;;;13.00;99.90;;;;;;4935937;29;20675;-50
2020/12/23 03:56:51;;;;;;;0.77;0.73;;;13.00;99.90;;;;;;4935804;29;20232;-48
2020/12/23 03:59:19;;;;;;;3.63;0.80;;;13.00;99.90;;;;;;4935663;29;20271;-49
2020/12/23 04:01:46;;;;;;;1.10;0.70;;;13.00;99.90;;;;;;4935715;29;20216;-51
2020/12/23 04:04:13;;;;;;;1.08;0.60;;;13.00;99.90;;;;;;4935520;29;20584;-51
2020/12/23 04:06:40;;;;;;;0.73;0.70;;;13.00;99.90;;;;;;4935680;29;20279;-53
2020/12/23 04:09:07;;;;;;;0.77;0.45;;;13.00;99.90;;;;;;4935589;29;20244;-52
2020/12/23 04:11:35;;;;;;;0.57;0.50;;;13.00;99.90;;;;;;4935395;29;20303;-52
2020/12/23 04:14:03;;;;;;;0.63;0.50;;;13.00;99.90;;;;;;4935482;29;20330;-54
2020/12/23 04:16:30;;;;;;;1.40;0.95;;;13.10;99.90;;;;;;4935426;29;20330;-53
2020/12/23 04:18:57;;;;;;;1.55;1.42;;;13.10;99.90;;;;;;4935604;29;20216;-51
2020/12/23 04:21:24;;;;;;;1.33;1.17;;;13.10;99.90;;;;;;4935323;29;20216;-50
2020/12/23 04:23:52;;;;;;;1.10;1.00;;;13.20;99.90;;;;;;4935287;29;20307;-49
2020/12/23 04:26:19;;;;;;;0.70;0.70;;;13.20;99.90;;;;;;4935281;29;20637;-52
2020/12/23 04:28:46;;;;;;;2.78;1.88;;;13.10;99.90;;;;;;4935145;29;20306;-54
2020/12/23 04:31:13;;;;;;;2.30;1.25;;;13.10;99.90;;;;;;4935216;29;20219;-51
2020/12/23 04:33:39;;;;;;;1.50;1.10;;;13.10;99.90;;;;;;4935179;29;20212;-47
2020/12/23 04:36:06;;;;;;;2.70;1.65;;;13.10;99.90;;;;;;4934900;29;20231;-50
2020/12/23 04:38:33;;;;;;;2.65;1.58;;;13.10;99.90;;;;;;4935492;29;20212;-46
2020/12/23 04:41:02;;;;;;;4.30;1.85;;;13.20;99.90;;;;;;4935280;29;20786;-48
2020/12/23 04:43:29;;;;;;;2.50;1.92;;;13.20;99.90;;;;;;4934836;29;20212;-45
2020/12/23 04:45:57;;;;;;;5.38;3.75;;;13.20;99.90;;;;;;4935013;29;20295;-45
2020/12/23 04:48:26;;;;;;;10.20;6.13;;;13.20;99.90;;;;;;4934825;29;20843;-48
2020/12/23 04:50:55;;;;;;;6.68;4.38;;;13.20;99.90;;;;;;4935101;29;20254;-48
2020/12/23 04:53:23;;;;;;;3.30;2.60;;;13.20;99.90;;;;;;4935084;29;20212;-47
2020/12/23 04:55:49;;;;;;;4.07;2.95;;;13.20;99.90;;;;;;4934595;29;20271;-46
2020/12/23 04:58:17;;;;;;;4.28;2.78;;;13.20;99.90;;;;;;4934683;29;20623;-47
2020/12/23 05:00:45;;;;;;;3.28;2.13;;;13.20;99.90;;;;;;4934921;29;20267;-49
2020/12/23 05:03:12;;;;;;;5.03;3.83;;;13.20;99.90;;;;;;4934629;29;20271;-45
2020/12/23 05:05:39;;;;;;;5.43;3.53;;;13.10;99.90;;;;;;4934651;29;20243;-46
2020/12/23 05:08:06;;;;;;;3.05;2.10;;;13.10;99.90;;;;;;4934676;29;20675;-44
2020/12/23 05:10:33;;;;;;;5.95;4.53;;;13.10;99.90;;;;;;4934735;29;20303;-45
2020/12/23 05:13:00;;;;;;;4.88;3.60;;;13.10;99.90;;;;;;4934613;29;20322;-44
2020/12/23 05:15:29;;;;;;;3.55;3.10;;;13.00;99.90;;;;;;4934403;29;20288;-47
2020/12/23 05:17:56;;;;;;;3.20;2.90;;;12.90;99.90;;;;;;4934399;29;20215;-47
2020/12/23 05:20:24;;;;;;;2.78;2.08;;;12.90;99.90;;;;;;4934479;29;20715;-47
2020/12/23 05:22:53;;;;;;;5.88;3.47;;;12.80;99.90;;;;;;4934549;29;20212;-45
2020/12/23 05:25:20;;;;;;;5.43;4.68;;;12.80;99.90;;;;;;4934447;29;20291;-46
2020/12/23 05:27:49;;;;;;;6.00;4.57;;;12.80;99.90;;;;;;4934558;29;20243;-43
2020/12/23 05:30:18;;;;;;;5.78;5.05;;;12.80;99.90;;;;;;4934265;29;20255;-46
2020/12/23 05:32:46;;;;;;;4.72;3.78;;;12.70;99.90;;;;;;4934324;29;20591;-48
2020/12/23 05:35:15;;;;;;;4.22;3.00;;;12.70;99.90;;;;;;4926987;29;20690;-46
2020/12/23 05:37:43;;;;;;;2.35;2.13;;;12.60;99.90;;;;;;4934505;29;20726;-46
2020/12/23 05:40:10;;;;;;;5.13;3.78;;;12.60;99.90;;;;;;4934444;29;20273;-49
2020/12/23 05:42:39;;;;;;;3.20;2.88;;;12.60;99.90;;;;;;4934364;29;20240;-46
2020/12/23 05:45:07;;;;;;;5.32;4.60;;;12.60;99.90;;;;;;4934602;29;20295;-51
2020/12/23 05:47:36;;;;;;;3.88;2.80;;;12.50;99.90;;;;;;4934321;29;20224;-52
2020/12/23 05:50:08;;;;;;;2.92;2.63;;;12.50;99.90;;;;;;4934470;29;20264;-48
2020/12/23 05:52:36;;;;;;;4.72;2.58;;;12.50;99.90;;;;;;4934364;29;20232;-48
2020/12/23 05:55:14;;;;;;;8.55;6.88;;;12.60;99.90;;;;;;4934379;29;20263;-48
2020/12/23 05:57:41;;;;;;;10.13;8.18;;;12.60;99.90;;;;;;4934568;29;20298;-51
2020/12/23 06:00:08;;;;;;;8.30;6.90;;;12.50;99.90;;;;;;4934191;29;20251;-48
2020/12/23 06:02:50;;;;;;;5.03;4.28;;;12.50;99.90;;;;;;4934165;29;20248;-47
2020/12/23 06:05:19;;;;;;;4.50;3.58;;;12.40;99.90;;;;;;4934202;29;20209;-46
2020/12/23 06:07:48;;;;;;;5.13;3.78;;;12.40;99.90;;;;;;4936802;29;20368;-45
2020/12/23 06:10:17;;;;;;;4.38;3.75;;;12.40;99.90;;;;;;4937999;29;20302;-49
2020/12/23 06:12:49;;;;;;;5.72;4.40;;;12.40;99.90;;;;;;4937561;29;20303;-48
2020/12/23 06:15:17;;;;;;;4.25;3.15;;;12.40;99.90;;;;;;4937541;29;20323;-47
2020/12/23 06:17:46;;;;;;;5.22;3.22;;;12.30;99.90;;;;;;4937592;29;20237;-46
2020/12/23 06:20:15;;;;;;;4.32;3.47;;;12.40;99.90;;;;;;4937413;29;20717;-47
2020/12/23 06:22:47;;;;;;;4.13;3.47;;;12.40;99.90;;;;;;4937383;29;20251;-47
2020/12/23 06:25:16;;;;;;;3.72;2.88;;;12.40;99.90;;;;;;4937508;29;20238;-46
2020/12/23 06:27:46;;;;;;;3.38;2.53;;;12.50;99.90;;;;;;4937383;29;20351;-46
2020/12/23 06:30:13;;;;;;;2.60;2.00;;;12.50;99.90;;;;;;4937325;29;20212;-49
2020/12/23 06:32:40;;;;;;;1.83;1.73;;;12.50;99.90;;;;;;4937222;29;20264;-49
2020/12/23 06:35:07;;;;;;;2.53;2.00;;;12.50;99.90;;;;;;4937102;29;20220;-48
2020/12/23 06:37:35;;;;;;;3.33;2.53;;;12.50;99.90;;;;;;4937125;29;20212;-47
2020/12/23 06:40:09;;;;;;;4.00;3.63;;;12.50;99.90;;;;;;4936894;29;20302;-47
2020/12/23 06:42:45;;;;;;;6.10;4.70;;;12.50;99.90;;;;;;4936816;29;20600;-48
2020/12/23 06:45:14;;;;;;;2.60;2.08;;;12.60;99.90;;;;;;4936903;29;20211;-50
2020/12/23 06:47:42;;;;;;;1.60;1.50;;;12.60;99.90;;;;;;4936719;29;20212;-51
2020/12/23 06:50:30;;;;;;;2.30;2.10;;;12.60;99.90;;;;;;4937010;29;20350;-47
2020/12/23 06:52:57;;;;;;;2.30;1.77;;;12.60;99.90;;;;;;4936633;29;20239;-46
2020/12/23 06:55:47;;;;;;;3.15;2.67;;;12.60;99.90;;;;;;4936504;29;20270;-46
2020/12/23 06:58:42;;;;;;;2.15;1.92;;;12.60;99.90;;;;;;4936923;29;20222;-49
2020/12/23 07:01:16;;;;;;;3.88;2.58;;;12.60;99.90;;;;;;4927970;29;20347;-46
2020/12/23 07:03:44;;;;;;;2.03;1.30;;;12.60;99.90;;;;;;4936726;29;20218;-44
2020/12/23 07:06:30;;;;;;;2.67;1.75;;;12.60;99.90;;;;;;4936699;29;20208;-47
2020/12/23 07:09:01;;;;;;;4.32;3.15;;;12.60;99.90;;;;;;4936639;29;20262;-49
2020/12/23 07:11:33;;;;;;;3.97;2.40;;;12.60;99.90;;;;;;4936711;29;20239;-44
2020/12/23 07:14:00;;;;;;;4.20;3.20;;;12.60;99.90;;;;;;4936497;29;20276;-56
2020/12/23 07:16:27;;;;;;;3.20;2.88;;;12.60;99.90;;;;;;4936418;29;20316;-51
2020/12/23 07:18:55;;;;;;;11.50;8.73;;;12.60;99.90;;;;;;4935314;29;20299;-49
2020/12/23 07:21:26;;;;;;;7.63;5.40;;;12.60;99.90;;;;;;4936466;29;20212;-50
2020/12/23 07:23:57;;;;;;;5.93;5.18;;;12.60;99.90;;;;;;4936387;29;20647;-50
2020/12/23 07:26:24;;;;;;;10.07;7.03;;;12.60;99.90;;;;;;4936428;29;20291;-55
2020/12/23 07:28:53;;;;;;;8.52;6.05;;;12.60;99.90;;;;;;4936392;29;20212;-48
2020/12/23 07:31:20;;;;;;;3.00;2.60;;;12.50;99.90;;;;;;4936277;29;20315;-50
2020/12/23 07:33:47;;;;;;;4.90;3.40;;;12.50;99.90;;;;;;4936350;29;20243;-48
2020/12/23 07:36:15;;;;;;;5.65;4.15;;;12.50;99.90;;;;;;4936227;29;20236;-46
2020/12/23 07:38:42;;;;;;;6.53;4.78;;;12.50;99.90;;;;;;4936174;29;20212;-51
2020/12/23 07:41:11;;;;;;;2.45;1.73;;;12.60;99.90;;;;;;4935960;29;20311;-47
2020/12/23 07:43:39;;;;;;;12.40;10.27;;;12.60;99.90;;;;;;4935888;29;20247;-48
2020/12/23 07:46:07;;;;;;;5.38;3.83;;;12.60;99.90;;;;;;4936163;29;20211;-48
2020/12/23 07:48:34;;;;;;;3.17;2.28;;;12.60;99.90;;;;;;4936036;29;20311;-48
2020/12/23 07:51:01;;;;;;;11.15;5.72;;;12.60;99.90;;;;;;4935938;29;20317;-49
2020/12/23 07:53:29;;;;;;;5.70;1.58;;;12.60;99.90;;;;;;4935838;29;20337;-53
2020/12/23 07:55:58;;;;;;;3.03;2.50;;;12.60;99.90;;;;;;4935639;29;20234;-52
2020/12/23 07:58:25;;;;;;;4.68;3.22;;;12.60;99.90;;;;;;4935898;29;20308;-47
2020/12/23 08:00:52;;;;;;;3.22;2.40;;;12.70;99.90;;;;;;4935895;29;20294;-50
2020/12/23 08:03:26;;;;;;;1.23;1.10;;;12.70;99.90;;;;;;4935690;29;20216;-50
2020/12/23 08:06:04;;;;;;;2.72;1.80;;;12.70;99.90;;;;;;4935465;29;20308;-47
2020/12/23 08:08:31;;;;;;;0.90;0.90;;;12.70;99.90;;;;;;4935522;29;20211;-50
2020/12/23 08:11:06;;;;;;;4.43;3.05;;;12.70;99.90;;;;;;4935525;29;20251;-52
2020/12/23 08:13:34;;;;;;;2.25;1.75;;;12.60;99.90;;;;;;4935374;29;20322;-48
2020/12/23 08:16:03;;;;;;;1.23;0.93;;;12.70;99.90;;;;;;4935340;29;20232;-49
2020/12/23 08:18:31;;;;;;;2.22;1.50;;;12.70;99.90;;;;;;4934722;29;20212;-47
2020/12/23 08:21:05;;;;;;;2.58;1.90;;;12.60;99.90;;;;;;4935168;29;20208;-47
2020/12/23 08:23:32;;;;;;;1.30;1.15;;;12.60;99.90;;;;;;4935667;29;20303;-48
2020/12/23 08:26:00;;;;;;;1.58;1.10;;;12.70;99.90;;;;;;4935215;29;20212;-46
2020/12/23 08:28:27;;;;;;;1.60;1.17;;;12.70;99.90;;;;;;4935115;29;20659;-50
2020/12/23 08:30:55;;;;;;;1.08;0.98;;;12.60;99.90;;;;;;4935078;29;20212;-50
2020/12/23 08:33:23;;;;;;;2.13;1.55;;;12.70;99.90;;;;;;4934994;29;20222;-52
2020/12/23 08:35:59;;;;;;;3.40;1.50;;;12.60;99.90;;;;;;4935210;29;20702;-50
2020/12/23 08:38:37;;;;;;;1.58;1.33;;;12.60;99.90;;;;;;4935321;29;20219;-50
2020/12/23 08:41:11;;;;;;;3.85;2.83;;;12.60;99.90;;;;;;4934996;29;20215;-48
2020/12/23 08:43:44;;;;;;;5.72;4.38;;;12.70;99.90;;;;;;4935142;29;20218;-48
2020/12/23 08:46:11;;;;;;;2.20;1.73;;;12.70;99.90;;;;;;4927094;29;20218;-51
2020/12/23 08:48:48;;;;;;;3.33;1.98;;;12.80;99.90;;;;;;4935164;29;20211;-48
2020/12/23 08:51:19;;;;;;;7.50;5.20;;;12.80;99.90;;;;;;4935135;29;20307;-48
2020/12/23 08:53:51;;;;;;;4.40;3.13;;;12.80;99.90;;;;;;4934849;29;20216;-48
2020/12/23 08:56:24;;;;;;;3.63;2.37;;;12.80;99.90;;;;;;4934831;29;20716;-48
2020/12/23 08:58:57;;;;;;;2.58;1.17;;;12.80;99.90;;;;;;4934999;29;20247;-47
2020/12/23 09:01:25;;;;;;;3.10;1.73;;;12.80;99.90;;;;;;4934847;29;20207;-50
2020/12/23 09:04:04;;;;;;;2.00;1.50;;;12.90;99.90;;;;;;4934737;29;20291;-52
2020/12/23 09:06:32;;;;;;;2.25;1.60;;;12.90;99.90;;;;;;4934916;29;20208;-51
2020/12/23 09:09:06;;;;;;;4.93;2.70;;;12.90;99.90;;;;;;4934514;29;20248;-50
2020/12/23 09:11:42;;;;;;;2.30;1.27;;;13.00;99.90;;;;;;4934957;29;20216;-48
2020/12/23 09:14:22;;;;;;;1.35;1.17;;;13.00;99.90;;;;;;4934453;29;20718;-46
2020/12/23 09:16:57;;;;;;;1.50;1.40;;;13.10;99.90;;;;;;4934455;29;20729;-47
2020/12/23 09:19:45;;;;;;;2.67;1.77;;;13.10;99.90;;;;;;4934575;29;20215;-49
2020/12/23 09:22:23;;;;;;;1.67;0.98;;;13.10;99.90;;;;;;4927289;29;20212;-45
2020/12/23 09:24:50;;;;;;;1.50;1.40;;;13.10;99.90;;;;;;4934762;29;20246;-49
2020/12/23 09:27:22;;;;;;;1.85;1.40;;;13.10;99.90;;;;;;4934549;29;20299;-50
2020/12/23 09:29:49;;;;;;;1.13;0.80;;;13.10;99.90;;;;;;4934464;29;20244;-47
2020/12/23 09:32:16;;;;;;;1.60;1.50;;;13.20;99.90;;;;;;4934333;29;20312;-47
2020/12/23 09:34:57;;;;;;;0.70;0.70;;;13.20;99.90;;;;;;4934709;29;20212;-47
2020/12/23 09:37:31;;;;;;;1.08;0.90;;;13.20;99.90;;;;;;4934444;29;20686;-45
2020/12/23 09:39:58;;;;;;;0.95;0.82;;;13.30;99.90;;;;;;4934225;29;20303;-47
2020/12/23 09:42:25;;;;;;;1.40;1.08;;;13.30;99.90;;;;;;4937017;29;20208;-51
2020/12/23 09:44:52;;;;;;;1.40;1.23;;;13.30;99.90;;;;;;4938163;29;20298;-47
2020/12/23 09:47:19;;;;;;;2.35;2.15;;;13.30;99.90;;;;;;4938425;29;20212;-49
2020/12/23 09:49:46;;;;;;;1.95;1.50;;;13.30;99.90;;;;;;4937955;29;20216;-46
2020/12/23 09:52:13;;;;;;;1.63;1.45;;;13.30;99.90;;;;;;4938105;29;20218;-46
2020/12/23 09:54:41;;;;;;;1.58;1.42;;;13.30;99.90;;;;;;4937995;29;20239;-47
2020/12/23 09:57:08;;;;;;;2.00;1.70;;;13.40;99.90;;;;;;4937743;29;20235;-46
2020/12/23 09:59:35;;;;;;;2.17;1.98;;;13.40;99.90;;;;;;4937646;29;20212;-48
2020/12/23 10:02:02;;;;;;;2.75;2.55;;;13.40;99.90;;;;;;4938038;29;20684;-48
2020/12/23 10:04:29;;;;;;;1.83;1.63;;;13.50;99.90;;;;;;4937699;29;20222;-47
2020/12/23 10:06:56;;;;;;;1.40;1.30;;;13.50;99.90;;;;;;4937803;29;20208;-45
2020/12/23 10:09:36;;;;;;;9.88;6.50;;;13.50;99.90;;;;;;4937637;29;20255;-45
2020/12/23 10:12:04;;;;;;;6.97;4.25;;;13.60;99.90;;;;;;4937832;29;20239;-48
2020/12/23 10:14:31;;;;;;;3.72;3.33;;;13.60;99.90;;;;;;4937577;29;20362;-46
2020/12/23 10:16:58;;;;;;;3.78;3.47;;;13.60;99.90;;;;;;4937563;29;20335;-46
2020/12/23 10:19:25;;;;;;;1.98;1.80;;;13.60;99.90;;;;;;4937277;29;20295;-46
2020/12/23 10:21:52;;;;;;;1.60;1.50;;;13.60;99.90;;;;;;4937408;29;20236;-48
2020/12/23 10:24:19;;;;;;;1.17;1.08;;;13.70;99.90;;;;;;4937671;29;20296;-45
2020/12/23 10:26:51;;;;;;;1.10;1.00;;;13.80;99.90;;;;;;4937469;29;20251;-46
2020/12/23 10:29:19;;;;;;;2.80;1.45;;;13.90;99.90;;;;;;4937483;29;20573;-48
2020/12/23 10:31:46;;;;;;;1.85;1.20;;;13.90;99.90;;;;;;4937299;29;20542;-48
2020/12/23 10:34:13;;;;;;;2.00;1.50;;;13.90;99.90;;;;;;4937328;29;20247;-46
2020/12/23 10:36:40;;;;;;;1.70;1.35;;;14.00;99.90;;;;;;4937461;29;20235;-48
2020/12/23 10:39:07;;;;;;;2.17;1.98;;;14.00;99.90;;;;;;4937316;29;20239;-45
2020/12/23 10:41:34;;;;;;;2.22;2.00;;;14.10;99.90;;;;;;4937281;29;20292;-45
2020/12/23 10:44:01;;;;;;;2.42;2.05;;;14.10;99.90;;;;;;4937210;29;20259;-50
2020/12/23 10:46:29;;;;;;;3.00;2.65;;;14.10;99.90;;;;;;4937242;29;20295;-46
2020/12/23 10:48:56;;;;;;;3.83;2.95;;;14.20;99.90;;;;;;4936959;29;20227;-48
2020/12/23 10:51:23;;;;;;;4.53;4.13;;;14.20;99.90;;;;;;4937279;29;20208;-47
2020/12/23 10:53:50;;;;;;;3.95;3.65;;;14.20;99.90;;;;;;4936833;29;20267;-50
2020/12/23 10:56:17;;;;;;;3.83;2.08;;;14.20;99.90;;;;;;4936930;29;20330;-47
2020/12/23 10:58:44;;;;;;;2.65;2.45;;;14.20;99.90;;;;;;4937024;29;20220;-48
2020/12/23 11:01:11;;;;;;;3.08;2.58;;;14.20;99.90;;;;;;4936813;29;20294;-49
2020/12/23 11:03:39;;;;;;;7.60;4.10;;;14.40;99.90;;;;;;4936613;29;20239;-46
2020/12/23 11:06:06;;;;;;;3.42;3.10;;;14.40;99.90;;;;;;4936652;29;20218;-51
2020/12/23 11:08:34;;;;;;;4.18;2.40;;;14.50;99.90;;;;;;4936682;29;20226;-53
2020/12/23 11:11:01;;;;;;;3.05;2.30;;;14.50;99.90;;;;;;4936363;29;20697;-50
2020/12/23 11:13:28;;;;;;;3.42;2.10;;;14.60;99.90;;;;;;4936352;29;20322;-51
2020/12/23 11:15:55;;;;;;;2.88;2.25;;;14.60;99.90;;;;;;4936065;29;20254;-53
2020/12/23 11:18:22;;;;;;;4.72;3.00;;;14.60;99.90;;;;;;4936395;29;20212;-51
2020/12/23 11:20:49;;;;;;;2.78;2.22;;;14.70;99.90;;;;;;4936362;29;20216;-49
2020/12/23 11:23:24;;;;;;;4.18;2.42;;;14.70;99.90;;;;;;4936310;29;20264;-47
2020/12/23 11:25:51;;;;;;;2.90;2.60;;;14.70;99.90;;;;;;4936534;29;20216;-50
2020/12/23 11:28:18;;;;;;;3.20;1.70;;;14.70;99.90;;;;;;4936202;29;20303;-48
2020/12/23 11:30:46;;;;;;;3.75;2.70;;;14.80;99.90;;;;;;4936146;29;20220;-46
2020/12/23 11:33:13;;;;;;;5.65;2.92;;;14.80;99.90;;;;;;4936353;29;20208;-46
2020/12/23 11:35:40;;;;;;;4.00;3.55;;;14.80;99.90;;;;;;4936168;29;20215;-51
2020/12/23 11:38:08;;;;;;;4.18;3.28;;;14.80;99.90;;;;;;4936024;29;20286;-48
2020/12/23 11:40:35;;;;;;;5.38;3.15;;;14.80;99.90;;;;;;4935886;29;20212;-51
2020/12/23 11:43:02;;;;;;;3.80;2.80;;;14.80;99.90;;;;;;4935890;29;20300;-53
2020/12/23 11:45:30;;;;;;;7.40;3.72;;;14.80;99.90;;;;;;4935656;29;20701;-46
2020/12/23 11:47:57;;;;;;;4.60;2.40;;;14.80;99.90;;;;;;4935830;29;20315;-48
2020/12/23 11:50:24;;;;;;;2.28;2.00;;;14.80;99.90;;;;;;4935384;29;20307;-49
2020/12/23 11:52:51;;;;;;;7.28;3.28;;;14.80;99.90;;;;;;4935622;29;20260;-39
2020/12/23 11:55:18;;;;;;;3.08;2.78;;;14.80;99.90;;;;;;4935716;29;20295;-48
2020/12/23 11:57:46;;;;;;;8.38;5.30;;;14.80;99.90;;;;;;4935567;29;20319;-47
2020/12/23 12:00:14;;;;;;;10.90;4.47;;;14.80;99.90;;;;;;4935648;29;20216;-48
2020/12/23 12:02:41;;;;;;;7.57;4.68;;;14.80;99.90;;;;;;4935732;29;20208;-46
2020/12/23 12:05:09;;;;;;;9.40;4.97;;;14.80;99.90;;;;;;4934771;29;20208;-45
2020/12/23 12:07:36;;;;;;;11.27;10.13;;;14.80;99.90;;;;;;4935356;29;20246;-47
2020/12/23 12:10:04;;;;;;;7.00;6.25;;;14.80;99.90;;;;;;4935327;29;20263;-46
2020/12/23 12:12:32;;;;;;;14.52;10.88;;;14.80;99.90;;;;;;4934993;29;20451;-46
2020/12/23 12:14:59;;;;;;;18.55;15.20;;;14.80;99.90;;;;;;4935192;29;20696;-47
2020/12/23 12:17:27;;;;;;;3.95;3.45;;;14.80;99.90;;;;;;4935214;29;20330;-48
2020/12/23 12:19:54;;;;;;;6.40;5.80;;;14.80;99.90;;;;;;4935231;29;20254;-51
2020/12/23 12:22:21;;;;;;;2.47;2.10;;;14.80;99.90;;;;;;4935135;29;20291;-46
2020/12/23 12:24:49;;;;;;;3.42;2.13;;;14.80;99.90;;;;;;4934999;29;20279;-46
2020/12/23 12:27:16;;;;;;;4.28;3.30;;;14.80;99.90;;;;;;4934939;29;20697;-44
2020/12/23 12:29:43;;;;;;;2.90;2.67;;;14.70;99.90;;;;;;4935019;29;20291;-44
2020/12/23 12:32:11;;;;;;;3.47;2.67;;;14.60;99.90;;;;;;4935138;29;20400;-51
2020/12/23 12:34:38;;;;;;;13.00;9.13;;;14.60;99.90;;;;;;4935438;29;20683;-49
2020/12/23 12:37:05;;;;;;;5.05;4.55;;;14.60;99.90;;;;;;4935054;29;20231;-46
2020/12/23 12:39:32;;;;;;;6.68;5.13;;;14.50;99.90;;;;;;4934888;29;20701;-45
2020/12/23 12:42:01;;;;;;;4.32;2.65;;;14.50;99.90;;;;;;4935229;29;20319;-46
2020/12/23 12:44:28;;;;;;;7.13;4.97;;;14.50;99.90;;;;;;4935034;29;20591;-47
2020/12/23 12:46:56;;;;;;;6.25;5.10;;;14.40;99.90;;;;;;4935051;29;20244;-47
2020/12/23 12:49:23;;;;;;;4.13;3.72;;;14.40;99.90;;;;;;4934995;29;20299;-46
2020/12/23 12:51:50;;;;;;;4.18;2.38;;;14.40;99.90;;;;;;4935245;29;20486;-48